createdAt,value
2018-08-27T00:00:43.793Z,0
2018-08-27T00:01:53.769Z,0
2018-08-27T00:03:03.471Z,0
2018-08-27T00:04:13.176Z,0
2018-08-27T00:05:23.133Z,0
2018-08-27T00:06:33.088Z,0
2018-08-27T00:07:43.127Z,0
2018-08-27T00:08:52.577Z,0
2018-08-27T00:10:02.542Z,0
2018-08-27T00:11:12.503Z,0
2018-08-27T00:12:22.205Z,0
2018-08-27T00:13:32.175Z,0
2018-08-27T00:14:41.878Z,0
2018-08-27T00:15:51.576Z,0
2018-08-27T00:17:01.281Z,0
2018-08-27T00:18:10.987Z,0
2018-08-27T00:19:20.701Z,0
2018-08-27T00:20:30.658Z,0
2018-08-27T00:21:40.363Z,0
2018-08-27T00:22:50.334Z,0
2018-08-27T00:24:00.039Z,0
2018-08-27T00:25:10.004Z,0
2018-08-27T00:26:19.968Z,0
2018-08-27T00:27:29.937Z,0
2018-08-27T00:28:39.652Z,0
2018-08-27T00:29:49.353Z,0
2018-08-27T00:30:59.306Z,0
2018-08-27T00:32:09.276Z,0
2018-08-27T00:33:18.988Z,0
2018-08-27T00:34:28.705Z,0
2018-08-27T00:35:38.667Z,0
2018-08-27T00:36:48.639Z,0
2018-08-27T00:37:58.595Z,0
2018-08-27T00:39:08.560Z,0
2018-08-27T00:40:18.531Z,0
2018-08-27T00:41:27.712Z,0
2018-08-27T00:42:37.709Z,0
2018-08-27T00:43:47.685Z,0
2018-08-27T00:44:57.634Z,0
2018-08-27T00:46:07.336Z,0
2018-08-27T00:47:17.036Z,0
2018-08-27T00:48:26.736Z,0
2018-08-27T00:49:36.451Z,0
2018-08-27T00:50:46.405Z,0
2018-08-27T00:51:56.110Z,0
2018-08-27T00:53:06.083Z,0
2018-08-27T00:54:16.051Z,0
2018-08-27T00:55:26.022Z,0
2018-08-27T00:56:35.977Z,0
2018-08-27T00:57:45.688Z,0
2018-08-27T00:58:55.650Z,0
2018-08-27T01:00:05.609Z,0
2018-08-27T01:01:15.315Z,0
2018-08-27T01:02:25.024Z,0
2018-08-27T01:03:34.734Z,0
2018-08-27T01:04:44.174Z,0
2018-08-27T01:05:54.148Z,0
2018-08-27T01:07:04.121Z,0
2018-08-27T01:08:14.082Z,0
2018-08-27T01:09:24.044Z,0
2018-08-27T01:10:34.004Z,0
2018-08-27T01:11:43.969Z,0
2018-08-27T01:12:53.676Z,0
2018-08-27T01:14:03.644Z,0
2018-08-27T01:15:13.344Z,0
2018-08-27T01:16:23.063Z,0
2018-08-27T01:17:33.027Z,0
2018-08-27T01:18:42.733Z,0
2018-08-27T01:19:52.706Z,0
2018-08-27T01:21:02.677Z,0
2018-08-27T01:22:12.388Z,0
2018-08-27T01:23:22.339Z,0
2018-08-27T01:24:32.306Z,0
2018-08-27T01:25:42.274Z,0
2018-08-27T01:26:52.235Z,0
2018-08-27T01:28:01.938Z,0
2018-08-27T01:29:11.380Z,0
2018-08-27T01:30:21.341Z,0
2018-08-27T01:31:31.038Z,0
2018-08-27T01:32:40.995Z,0
2018-08-27T01:33:50.708Z,0
2018-08-27T01:35:00.408Z,0
2018-08-27T01:36:10.377Z,0
2018-08-27T01:37:20.314Z,0
2018-08-27T01:38:30.018Z,0
2018-08-27T01:39:39.990Z,0
2018-08-27T01:40:49.961Z,0
2018-08-27T01:41:59.915Z,0
2018-08-27T01:43:09.887Z,0
2018-08-27T01:44:19.587Z,0
2018-08-27T01:45:29.562Z,0
2018-08-27T01:46:39.536Z,0
2018-08-27T01:47:49.494Z,0
2018-08-27T01:48:59.202Z,0
2018-08-27T01:50:09.169Z,0
2018-08-27T01:51:18.874Z,0
2018-08-27T01:52:28.889Z,0
2018-08-27T01:53:38.839Z,0
2018-08-27T01:54:48.816Z,0
2018-08-27T01:55:58.792Z,0
2018-08-27T01:57:08.501Z,0
2018-08-27T01:58:18.469Z,0
2018-08-27T01:59:28.421Z,0
2018-08-27T02:00:38.374Z,0
2018-08-27T02:01:48.331Z,0
2018-08-27T02:02:58.309Z,0
2018-08-27T02:04:08.021Z,0
2018-08-27T02:05:17.211Z,0
2018-08-27T02:06:27.172Z,0
2018-08-27T02:07:37.128Z,0
2018-08-27T02:08:47.109Z,0
2018-08-27T02:09:56.814Z,0
2018-08-27T02:11:06.514Z,0
2018-08-27T02:12:16.481Z,0
2018-08-27T02:13:25.925Z,0
2018-08-27T02:14:35.623Z,0
2018-08-27T02:15:45.582Z,0
2018-08-27T02:16:55.296Z,0
2018-08-27T02:18:05.255Z,0
2018-08-27T02:19:15.225Z,0
2018-08-27T02:20:25.195Z,0
2018-08-27T02:21:34.909Z,0
2018-08-27T02:22:44.649Z,0
2018-08-27T02:23:54.604Z,0
2018-08-27T02:25:04.563Z,0
2018-08-27T02:26:14.521Z,0
2018-08-27T02:27:24.230Z,0
2018-08-27T02:28:34.194Z,0
2018-08-27T02:29:43.893Z,0
2018-08-27T02:30:53.874Z,0
2018-08-27T02:32:03.590Z,0
2018-08-27T02:33:13.555Z,0
2018-08-27T02:34:23.522Z,0
2018-08-27T02:35:33.587Z,0
2018-08-27T02:36:43.282Z,0
2018-08-27T02:37:53.249Z,0
2018-08-27T02:39:03.217Z,0
2018-08-27T02:40:12.933Z,0
2018-08-27T02:41:22.912Z,0
2018-08-27T02:42:32.884Z,0
2018-08-27T02:43:42.856Z,0
2018-08-27T02:44:52.300Z,0
2018-08-27T02:46:02.253Z,0
2018-08-27T02:47:12.210Z,0
2018-08-27T02:48:22.188Z,0
2018-08-27T02:49:32.166Z,0
2018-08-27T02:50:42.122Z,0
2018-08-27T02:51:52.093Z,0
2018-08-27T02:53:01.799Z,0
2018-08-27T02:54:11.500Z,0
2018-08-27T02:55:20.946Z,0
2018-08-27T02:56:30.913Z,0
2018-08-27T02:57:40.877Z,0
2018-08-27T02:58:50.572Z,0
2018-08-27T03:00:00.280Z,0
2018-08-27T03:01:10.242Z,0
2018-08-27T03:02:20.214Z,0
2018-08-27T03:03:30.177Z,0
2018-08-27T03:04:40.153Z,0
2018-08-27T03:05:49.882Z,0
2018-08-27T03:06:59.584Z,0
2018-08-27T03:08:09.288Z,0
2018-08-27T03:09:19.256Z,0
2018-08-27T03:10:29.223Z,0
2018-08-27T03:11:39.184Z,0
2018-08-27T03:12:49.144Z,0
2018-08-27T03:13:59.098Z,0
2018-08-27T03:15:08.296Z,0
2018-08-27T03:16:18.005Z,0
2018-08-27T03:17:27.714Z,0
2018-08-27T03:18:37.933Z,0
2018-08-27T03:19:47.891Z,0
2018-08-27T03:20:57.594Z,0
2018-08-27T03:22:07.572Z,0
2018-08-27T03:23:17.551Z,0
2018-08-27T03:24:27.273Z,0
2018-08-27T03:25:36.986Z,0
2018-08-27T03:26:46.697Z,0
2018-08-27T03:27:56.658Z,0
2018-08-27T03:29:06.611Z,0
2018-08-27T03:30:16.312Z,0
2018-08-27T03:31:26.292Z,0
2018-08-27T03:32:36.255Z,0
2018-08-27T03:33:46.233Z,0
2018-08-27T03:34:55.946Z,0
2018-08-27T03:36:05.656Z,0
2018-08-27T03:37:15.373Z,0
2018-08-27T03:38:25.339Z,0
2018-08-27T03:39:35.296Z,0
2018-08-27T03:40:45.516Z,0
2018-08-27T03:41:55.587Z,0
2018-08-27T03:43:05.581Z,0
2018-08-27T03:44:15.294Z,0
2018-08-27T03:45:25.013Z,0
2018-08-27T03:46:34.972Z,0
2018-08-27T03:47:44.674Z,0
2018-08-27T03:48:54.638Z,0
2018-08-27T03:50:04.349Z,0
2018-08-27T03:51:14.054Z,0
2018-08-27T03:52:23.761Z,0
2018-08-27T03:53:33.735Z,0
2018-08-27T03:54:43.699Z,0
2018-08-27T03:55:53.401Z,0
2018-08-27T03:57:03.108Z,0
2018-08-27T03:58:12.821Z,0
2018-08-27T03:59:22.531Z,0
2018-08-27T04:00:32.249Z,5
2018-08-27T04:01:42.204Z,5
2018-08-27T04:02:52.171Z,5
2018-08-27T04:04:01.872Z,5
2018-08-27T04:05:11.671Z,5
2018-08-27T04:06:21.691Z,10
2018-08-27T04:07:31.695Z,10
2018-08-27T04:08:41.663Z,10
2018-08-27T04:09:51.632Z,10
2018-08-27T04:11:01.326Z,15
2018-08-27T04:12:11.041Z,15
2018-08-27T04:13:20.751Z,15
2018-08-27T04:14:30.721Z,15
2018-08-27T04:15:40.424Z,20
2018-08-27T04:16:50.402Z,20
2018-08-27T04:18:00.122Z,25
2018-08-27T04:19:09.824Z,25
2018-08-27T04:20:19.819Z,25
2018-08-27T04:21:29.841Z,30
2018-08-27T04:22:39.801Z,35
2018-08-27T04:23:49.776Z,35
2018-08-27T04:24:59.740Z,40
2018-08-27T04:26:09.706Z,40
2018-08-27T04:27:19.671Z,40
2018-08-27T04:28:29.654Z,45
2018-08-27T04:29:39.635Z,45
2018-08-27T04:30:49.605Z,50
2018-08-27T04:31:59.321Z,55
2018-08-27T04:33:09.023Z,55
2018-08-27T04:34:18.723Z,60
2018-08-27T04:35:28.438Z,60
2018-08-27T04:36:38.405Z,65
2018-08-27T04:37:48.342Z,65
2018-08-27T04:38:58.302Z,70
2018-08-27T04:40:07.746Z,70
2018-08-27T04:41:17.204Z,75
2018-08-27T04:42:27.335Z,75
2018-08-27T04:43:37.372Z,80
2018-08-27T04:44:47.337Z,80
2018-08-27T04:45:57.061Z,80
2018-08-27T04:47:07.051Z,85
2018-08-27T04:48:17.085Z,85
2018-08-27T04:49:26.795Z,90
2018-08-27T04:50:36.512Z,90
2018-08-27T04:51:46.210Z,90
2018-08-27T04:52:56.258Z,95
2018-08-27T04:54:06.230Z,95
2018-08-27T04:55:15.950Z,95
2018-08-27T04:56:25.926Z,95
2018-08-27T04:57:35.926Z,95
2018-08-27T04:58:45.894Z,95
2018-08-27T04:59:55.860Z,95
2018-08-27T05:01:05.580Z,95
2018-08-27T05:02:15.547Z,95
2018-08-27T05:03:25.510Z,100
2018-08-27T05:04:35.489Z,100
2018-08-27T05:05:45.470Z,105
2018-08-27T05:06:54.919Z,105
2018-08-27T05:08:04.890Z,105
2018-08-27T05:09:14.599Z,110
2018-08-27T05:10:24.322Z,110
2018-08-27T05:11:34.297Z,110
2018-08-27T05:12:44.473Z,115
2018-08-27T05:13:54.185Z,115
2018-08-27T05:15:04.152Z,120
2018-08-27T05:16:14.122Z,125
2018-08-27T05:17:24.098Z,125
2018-08-27T05:18:33.554Z,130
2018-08-27T05:19:43.530Z,130
2018-08-27T05:20:53.241Z,135
2018-08-27T05:22:03.205Z,135
2018-08-27T05:23:12.911Z,135
2018-08-27T05:24:22.885Z,135
2018-08-27T05:25:32.854Z,135
2018-08-27T05:26:42.567Z,135
2018-08-27T05:27:52.561Z,140
2018-08-27T05:29:02.572Z,140
2018-08-27T05:30:12.283Z,145
2018-08-27T05:31:22.724Z,150
2018-08-27T05:32:32.224Z,155
2018-08-27T05:33:42.213Z,160
2018-08-27T05:34:52.189Z,160
2018-08-27T05:36:02.179Z,160
2018-08-27T05:37:12.161Z,155
2018-08-27T05:38:22.297Z,155
2018-08-27T05:39:32.286Z,150
2018-08-27T05:40:42.240Z,155
2018-08-27T05:41:52.211Z,155
2018-08-27T05:43:01.924Z,160
2018-08-27T05:44:11.662Z,160
2018-08-27T05:45:21.620Z,165
2018-08-27T05:46:31.583Z,175
2018-08-27T05:47:41.841Z,180
2018-08-27T05:48:51.542Z,190
2018-08-27T05:50:01.509Z,200
2018-08-27T05:51:11.285Z,205
2018-08-27T05:52:22.079Z,210
2018-08-27T05:53:32.239Z,215
2018-08-27T05:54:42.278Z,220
2018-08-27T05:55:52.252Z,220
2018-08-27T05:57:01.971Z,230
2018-08-27T05:58:11.953Z,240
2018-08-27T05:59:21.928Z,255
2018-08-27T06:00:31.901Z,260
2018-08-27T06:01:42.325Z,270
2018-08-27T06:02:52.134Z,280
2018-08-27T06:04:01.856Z,290
2018-08-27T06:05:11.578Z,300
2018-08-27T06:06:21.615Z,315
2018-08-27T06:07:31.589Z,330
2018-08-27T06:08:41.571Z,345
2018-08-27T06:09:51.734Z,350
2018-08-27T06:11:01.511Z,355
2018-08-27T06:12:11.489Z,350
2018-08-27T06:13:21.466Z,335
2018-08-27T06:14:31.427Z,325
2018-08-27T06:15:41.438Z,300
2018-08-27T06:16:51.605Z,285
2018-08-27T06:18:01.577Z,275
2018-08-27T06:19:11.551Z,270
2018-08-27T06:20:21.525Z,260
2018-08-27T06:21:31.500Z,260
2018-08-27T06:22:41.458Z,265
2018-08-27T06:23:51.445Z,275
2018-08-27T06:25:01.324Z,280
2018-08-27T06:26:11.306Z,290
2018-08-27T06:27:21.009Z,290
2018-08-27T06:28:30.995Z,290
2018-08-27T06:29:40.964Z,285
2018-08-27T06:30:50.935Z,285
2018-08-27T06:32:00.389Z,290
2018-08-27T06:33:10.373Z,290
2018-08-27T06:34:20.339Z,305
2018-08-27T06:35:30.041Z,320
2018-08-27T06:36:40.158Z,335
2018-08-27T06:37:50.148Z,340
2018-08-27T06:39:00.247Z,345
2018-08-27T06:40:09.968Z,355
2018-08-27T06:41:19.426Z,375
2018-08-27T06:42:28.882Z,395
2018-08-27T06:43:38.610Z,400
2018-08-27T06:44:48.583Z,415
2018-08-27T06:45:58.568Z,435
2018-08-27T06:47:08.037Z,440
2018-08-27T06:48:17.800Z,425
2018-08-27T06:49:27.809Z,415
2018-08-27T06:50:37.771Z,400
2018-08-27T06:51:47.488Z,390
2018-08-27T06:52:57.465Z,395
2018-08-27T06:54:07.445Z,400
2018-08-27T06:55:17.503Z,415
2018-08-27T06:56:27.494Z,425
2018-08-27T06:57:37.457Z,440
2018-08-27T06:58:47.448Z,440
2018-08-27T06:59:57.430Z,435
2018-08-27T07:01:07.393Z,440
2018-08-27T07:02:17.196Z,450
2018-08-27T07:03:27.265Z,460
2018-08-27T07:04:37.257Z,460
2018-08-27T07:05:46.979Z,455
2018-08-27T07:06:56.946Z,445
2018-08-27T07:08:06.678Z,450
2018-08-27T07:09:16.134Z,440
2018-08-27T07:10:25.886Z,425
2018-08-27T07:11:35.414Z,425
2018-08-27T07:12:45.469Z,435
2018-08-27T07:13:55.470Z,440
2018-08-27T07:15:05.190Z,450
2018-08-27T07:16:15.195Z,460
2018-08-27T07:17:24.968Z,460
2018-08-27T07:18:34.925Z,450
2018-08-27T07:19:44.901Z,430
2018-08-27T07:20:54.630Z,440
2018-08-27T07:22:04.349Z,475
2018-08-27T07:23:14.327Z,505
2018-08-27T07:24:24.308Z,530
2018-08-27T07:25:34.027Z,530
2018-08-27T07:26:44.010Z,520
2018-08-27T07:27:53.728Z,515
2018-08-27T07:29:03.693Z,520
2018-08-27T07:30:13.423Z,525
2018-08-27T07:31:23.425Z,535
2018-08-27T07:32:33.187Z,545
2018-08-27T07:33:43.115Z,540
2018-08-27T07:34:52.845Z,525
2018-08-27T07:36:02.849Z,510
2018-08-27T07:37:12.572Z,510
2018-08-27T07:38:22.296Z,505
2018-08-27T07:39:32.330Z,505
2018-08-27T07:40:42.318Z,510
2018-08-27T07:41:52.304Z,510
2018-08-27T07:43:02.300Z,515
2018-08-27T07:44:12.292Z,535
2018-08-27T07:45:22.012Z,560
2018-08-27T07:46:32.029Z,570
2018-08-27T07:47:41.733Z,580
2018-08-27T07:48:51.709Z,605
2018-08-27T07:50:01.695Z,645
2018-08-27T07:51:11.624Z,685
2018-08-27T07:52:21.139Z,705
2018-08-27T07:53:30.904Z,710
2018-08-27T07:54:40.362Z,705
2018-08-27T07:55:50.594Z,705
2018-08-27T07:57:00.318Z,725
2018-08-27T07:58:10.302Z,695
2018-08-27T07:59:20.285Z,670
2018-08-27T08:00:30.025Z,665
2018-08-27T08:01:39.478Z,685
2018-08-27T08:02:49.470Z,695
2018-08-27T08:03:59.448Z,700
2018-08-27T08:05:09.418Z,710
2018-08-27T08:06:19.121Z,725
2018-08-27T08:07:29.517Z,740
2018-08-27T08:08:39.230Z,740
2018-08-27T08:09:48.951Z,750
2018-08-27T08:10:58.917Z,725
2018-08-27T08:12:08.123Z,690
2018-08-27T08:13:18.095Z,680
2018-08-27T08:14:27.800Z,660
2018-08-27T08:15:37.784Z,655
2018-08-27T08:16:47.770Z,650
2018-08-27T08:17:57.766Z,650
2018-08-27T08:19:07.476Z,675
2018-08-27T08:20:17.182Z,695
2018-08-27T08:21:27.171Z,735
2018-08-27T08:22:37.154Z,760
2018-08-27T08:23:46.925Z,795
2018-08-27T08:24:56.645Z,865
2018-08-27T08:26:06.103Z,930
2018-08-27T08:27:16.077Z,965
2018-08-27T08:28:25.802Z,960
2018-08-27T08:29:35.777Z,1050
2018-08-27T08:30:45.753Z,855
2018-08-27T08:31:55.483Z,980
2018-08-27T08:33:05.564Z,900
2018-08-27T08:34:15.610Z,940
2018-08-27T08:35:25.082Z,810
2018-08-27T08:36:35.057Z,855
2018-08-27T08:37:44.523Z,980
2018-08-27T08:38:54.248Z,1130
2018-08-27T08:40:04.764Z,975
2018-08-27T08:41:14.931Z,1025
2018-08-27T08:42:24.941Z,1030
2018-08-27T08:43:34.688Z,945
2018-08-27T08:44:44.148Z,1015
2018-08-27T08:45:53.892Z,950
2018-08-27T08:47:03.914Z,845
2018-08-27T08:48:13.907Z,930
2018-08-27T08:49:23.910Z,820
2018-08-27T08:50:33.893Z,800
2018-08-27T08:51:43.664Z,835
2018-08-27T08:52:53.675Z,845
2018-08-27T08:54:03.418Z,850
2018-08-27T08:55:13.405Z,870
2018-08-27T08:56:22.891Z,1050
2018-08-27T08:57:32.899Z,850
2018-08-27T08:58:42.916Z,825
2018-08-27T08:59:52.964Z,830
2018-08-27T09:01:03.014Z,845
2018-08-27T09:02:13.043Z,880
2018-08-27T09:03:23.033Z,905
2018-08-27T09:04:33.013Z,945
2018-08-27T09:05:43.027Z,970
2018-08-27T09:06:53.018Z,1035
2018-08-27T09:08:02.877Z,1020
2018-08-27T09:09:13.450Z,945
2018-08-27T09:10:23.417Z,805
2018-08-27T09:11:33.407Z,750
2018-08-27T09:12:43.373Z,695
2018-08-27T09:13:53.350Z,650
2018-08-27T09:15:02.827Z,620
2018-08-27T09:16:12.530Z,615
2018-08-27T09:17:22.564Z,630
2018-08-27T09:18:32.279Z,650
2018-08-27T09:19:42.009Z,650
2018-08-27T09:20:51.987Z,655
2018-08-27T09:22:01.983Z,660
2018-08-27T09:23:11.957Z,660
2018-08-27T09:24:21.662Z,650
2018-08-27T09:25:31.365Z,665
2018-08-27T09:26:41.096Z,675
2018-08-27T09:27:51.071Z,690
2018-08-27T09:29:00.786Z,715
2018-08-27T09:30:10.786Z,730
2018-08-27T09:31:21.069Z,735
2018-08-27T09:32:30.870Z,715
2018-08-27T09:33:40.588Z,685
2018-08-27T09:34:50.569Z,660
2018-08-27T09:36:00.331Z,645
2018-08-27T09:37:10.801Z,660
2018-08-27T09:38:20.540Z,665
2018-08-27T09:39:30.518Z,685
2018-08-27T09:40:40.491Z,700
2018-08-27T09:41:50.811Z,700
2018-08-27T09:43:00.570Z,690
2018-08-27T09:44:10.561Z,685
2018-08-27T09:45:20.547Z,700
2018-08-27T09:46:30.538Z,725
2018-08-27T09:47:40.512Z,760
2018-08-27T09:48:49.986Z,795
2018-08-27T09:49:59.722Z,835
2018-08-27T09:51:09.447Z,860
2018-08-27T09:52:19.435Z,870
2018-08-27T09:53:29.423Z,870
2018-08-27T09:54:39.400Z,880
2018-08-27T09:55:49.427Z,905
2018-08-27T09:56:59.174Z,880
2018-08-27T09:58:08.891Z,840
2018-08-27T09:59:19.330Z,835
2018-08-27T10:00:29.476Z,860
2018-08-27T10:01:39.483Z,900
2018-08-27T10:02:49.451Z,945
2018-08-27T10:03:59.451Z,925
2018-08-27T10:05:09.168Z,860
2018-08-27T10:06:19.152Z,825
2018-08-27T10:07:28.879Z,850
2018-08-27T10:08:38.578Z,865
2018-08-27T10:09:48.319Z,810
2018-08-27T10:10:58.055Z,805
2018-08-27T10:12:08.043Z,825
2018-08-27T10:13:18.041Z,815
2018-08-27T10:14:28.075Z,785
2018-08-27T10:15:38.094Z,760
2018-08-27T10:16:48.092Z,735
2018-08-27T10:17:57.813Z,725
2018-08-27T10:19:07.536Z,705
2018-08-27T10:20:17.521Z,700
2018-08-27T10:21:27.528Z,675
2018-08-27T10:22:37.973Z,630
2018-08-27T10:23:48.048Z,600
2018-08-27T10:24:57.761Z,575
2018-08-27T10:26:07.735Z,580
2018-08-27T10:27:17.212Z,550
2018-08-27T10:28:27.194Z,520
2018-08-27T10:29:36.927Z,505
2018-08-27T10:30:46.928Z,495
2018-08-27T10:31:56.981Z,485
2018-08-27T10:33:06.949Z,490
2018-08-27T10:34:16.914Z,510
2018-08-27T10:35:26.937Z,540
2018-08-27T10:36:36.923Z,575
2018-08-27T10:37:46.909Z,620
2018-08-27T10:38:56.862Z,635
2018-08-27T10:40:06.866Z,640
2018-08-27T10:41:17.080Z,630
2018-08-27T10:42:27.094Z,620
2018-08-27T10:43:36.830Z,630
2018-08-27T10:44:46.311Z,640
2018-08-27T10:45:56.302Z,645
2018-08-27T10:47:06.303Z,660
2018-08-27T10:48:16.031Z,695
2018-08-27T10:49:26.008Z,725
2018-08-27T10:50:35.958Z,725
2018-08-27T10:51:45.975Z,705
2018-08-27T10:52:55.979Z,675
2018-08-27T10:54:05.969Z,630
2018-08-27T10:55:15.915Z,645
2018-08-27T10:56:25.903Z,665
2018-08-27T10:57:35.683Z,665
2018-08-27T10:58:45.382Z,670
2018-08-27T10:59:55.361Z,680
2018-08-27T11:01:05.361Z,665
2018-08-27T11:02:15.345Z,660
2018-08-27T11:03:25.322Z,675
2018-08-27T11:04:35.075Z,685
2018-08-27T11:05:45.130Z,645
2018-08-27T11:06:54.848Z,590
2018-08-27T11:08:04.585Z,535
2018-08-27T11:09:14.558Z,520
2018-08-27T11:10:24.274Z,530
2018-08-27T11:11:34.289Z,540
2018-08-27T11:12:44.307Z,560
2018-08-27T11:13:54.305Z,575
2018-08-27T11:15:04.302Z,580
2018-08-27T11:16:14.017Z,570
2018-08-27T11:17:24.102Z,535
2018-08-27T11:18:34.100Z,500
2018-08-27T11:19:45.086Z,490
2018-08-27T11:20:55.298Z,490
2018-08-27T11:22:05.285Z,465
2018-08-27T11:23:15.012Z,470
2018-08-27T11:24:25.030Z,485
2018-08-27T11:25:35.062Z,505
2018-08-27T11:26:46.425Z,545
2018-08-27T11:27:56.308Z,560
2018-08-27T11:29:06.068Z,565
2018-08-27T11:30:15.788Z,565
2018-08-27T11:31:25.532Z,570
2018-08-27T11:32:35.248Z,540
2018-08-27T11:33:44.963Z,480
2018-08-27T11:34:54.695Z,445
2018-08-27T11:36:04.396Z,440
2018-08-27T11:37:14.107Z,440
2018-08-27T11:38:24.093Z,425
2018-08-27T11:39:34.060Z,415
2018-08-27T11:40:44.051Z,430
2018-08-27T11:41:53.791Z,440
2018-08-27T11:43:03.757Z,470
2018-08-27T11:44:13.458Z,525
2018-08-27T11:45:23.182Z,595
2018-08-27T11:46:33.193Z,645
2018-08-27T11:47:43.406Z,690
2018-08-27T11:48:53.113Z,715
2018-08-27T11:50:03.165Z,760
2018-08-27T11:51:13.438Z,840
2018-08-27T11:52:23.450Z,865
2018-08-27T11:53:33.438Z,845
2018-08-27T11:54:43.423Z,770
2018-08-27T11:55:53.201Z,655
2018-08-27T11:57:03.195Z,565
2018-08-27T11:58:13.158Z,565
2018-08-27T11:59:23.131Z,585
2018-08-27T12:00:32.768Z,580
2018-08-27T12:01:42.757Z,575
2018-08-27T12:02:52.737Z,575
2018-08-27T12:04:02.713Z,590
2018-08-27T12:05:12.704Z,595
2018-08-27T12:06:22.962Z,590
2018-08-27T12:07:32.717Z,605
2018-08-27T12:08:42.741Z,615
2018-08-27T12:09:52.731Z,620
2018-08-27T12:11:03.100Z,620
2018-08-27T12:12:13.267Z,620
2018-08-27T12:13:23.396Z,595
2018-08-27T12:14:33.868Z,590
2018-08-27T12:15:44.559Z,590
2018-08-27T12:16:55.063Z,595
2018-08-27T12:18:05.144Z,590
2018-08-27T12:19:14.887Z,600
2018-08-27T12:20:25.277Z,600
2018-08-27T12:21:35.383Z,565
2018-08-27T12:22:45.323Z,500
2018-08-27T12:23:56.275Z,480
2018-08-27T12:25:06.090Z,555
2018-08-27T12:26:16.095Z,570
2018-08-27T12:27:26.104Z,555
2018-08-27T12:28:36.303Z,550
2018-08-27T12:29:47.212Z,615
2018-08-27T12:30:57.281Z,645
2018-08-27T12:32:07.470Z,610
2018-08-27T12:33:18.371Z,590
2018-08-27T12:34:28.120Z,580
2018-08-27T12:35:38.124Z,595
2018-08-27T12:36:49.476Z,595
2018-08-27T12:38:00.098Z,570
2018-08-27T12:39:09.861Z,510
2018-08-27T12:40:19.588Z,500
2018-08-27T12:41:29.509Z,500
2018-08-27T12:42:39.557Z,520
2018-08-27T12:43:50.614Z,530
2018-08-27T12:45:00.628Z,525
2018-08-27T12:46:10.689Z,535
2018-08-27T12:47:20.984Z,540
2018-08-27T12:48:30.720Z,545
2018-08-27T12:49:40.729Z,575
2018-08-27T12:50:50.924Z,590
2018-08-27T12:52:00.767Z,575
2018-08-27T12:53:10.492Z,590
2018-08-27T12:54:20.270Z,590
2018-08-27T12:55:30.001Z,595
2018-08-27T12:56:39.998Z,630
2018-08-27T12:57:49.470Z,670
2018-08-27T12:59:00.032Z,635
2018-08-27T13:00:09.826Z,530
2018-08-27T13:01:19.295Z,450
2018-08-27T13:02:29.020Z,425
2018-08-27T13:03:39.236Z,405
2018-08-27T13:04:48.708Z,405
2018-08-27T13:05:58.876Z,425
2018-08-27T13:07:08.881Z,440
2018-08-27T13:08:19.041Z,445
2018-08-27T13:09:29.006Z,450
2018-08-27T13:10:38.993Z,460
2018-08-27T13:11:49.221Z,455
2018-08-27T13:12:59.678Z,450
2018-08-27T13:14:09.798Z,455
2018-08-27T13:15:19.829Z,475
2018-08-27T13:16:29.591Z,500
2018-08-27T13:17:39.346Z,515
2018-08-27T13:18:49.137Z,535
2018-08-27T13:19:58.628Z,585
2018-08-27T13:21:08.363Z,645
2018-08-27T13:22:18.334Z,685
2018-08-27T13:23:28.297Z,765
2018-08-27T13:24:38.277Z,785
2018-08-27T13:25:48.583Z,760
2018-08-27T13:26:58.624Z,790
2018-08-27T13:28:08.340Z,825
2018-08-27T13:29:18.354Z,790
2018-08-27T13:30:28.673Z,720
2018-08-27T13:31:39.869Z,665
2018-08-27T13:32:49.971Z,640
2018-08-27T13:33:59.702Z,635
2018-08-27T13:35:09.695Z,650
2018-08-27T13:36:19.669Z,645
2018-08-27T13:37:29.651Z,630
2018-08-27T13:38:39.374Z,605
2018-08-27T13:39:49.361Z,570
2018-08-27T13:40:59.338Z,545
2018-08-27T13:42:09.331Z,530
2018-08-27T13:43:19.061Z,535
2018-08-27T13:44:29.056Z,540
2018-08-27T13:45:39.055Z,595
2018-08-27T13:46:48.797Z,640
2018-08-27T13:47:58.513Z,625
2018-08-27T13:49:07.969Z,660
2018-08-27T13:50:17.950Z,655
2018-08-27T13:51:27.705Z,560
2018-08-27T13:52:37.166Z,500
2018-08-27T13:53:47.149Z,485
2018-08-27T13:54:57.132Z,470
2018-08-27T13:56:07.107Z,455
2018-08-27T13:57:16.815Z,470
2018-08-27T13:58:26.535Z,495
2018-08-27T13:59:36.524Z,565
2018-08-27T14:00:46.496Z,670
2018-08-27T14:01:56.460Z,680
2018-08-27T14:03:06.453Z,630
2018-08-27T14:04:16.173Z,520
2018-08-27T14:05:26.712Z,440
2018-08-27T14:06:37.128Z,395
2018-08-27T14:07:47.148Z,380
2018-08-27T14:08:57.133Z,370
2018-08-27T14:10:07.122Z,360
2018-08-27T14:11:16.850Z,365
2018-08-27T14:12:26.985Z,410
2018-08-27T14:13:37.090Z,515
2018-08-27T14:14:47.287Z,590
2018-08-27T14:15:58.052Z,630
2018-08-27T14:17:07.757Z,660
2018-08-27T14:18:17.747Z,625
2018-08-27T14:19:28.679Z,575
2018-08-27T14:20:39.080Z,555
2018-08-27T14:21:49.071Z,545
2018-08-27T14:22:59.049Z,565
2018-08-27T14:24:08.766Z,555
2018-08-27T14:25:18.736Z,520
2018-08-27T14:26:28.876Z,545
2018-08-27T14:27:38.772Z,575
2018-08-27T14:28:48.766Z,565
2018-08-27T14:29:58.886Z,540
2018-08-27T14:31:08.107Z,505
2018-08-27T14:32:17.575Z,455
2018-08-27T14:33:27.890Z,420
2018-08-27T14:34:38.151Z,430
2018-08-27T14:35:48.564Z,395
2018-08-27T14:36:58.640Z,340
2018-08-27T14:38:08.609Z,300
2018-08-27T14:39:19.124Z,285
2018-08-27T14:40:29.406Z,275
2018-08-27T14:41:40.085Z,260
2018-08-27T14:42:50.558Z,255
2018-08-27T14:44:00.539Z,250
2018-08-27T14:45:11.099Z,245
2018-08-27T14:46:20.916Z,240
2018-08-27T14:47:30.952Z,240
2018-08-27T14:48:40.682Z,240
2018-08-27T14:49:50.168Z,255
2018-08-27T14:50:59.891Z,265
2018-08-27T14:52:09.620Z,295
2018-08-27T14:53:19.596Z,355
2018-08-27T14:54:29.633Z,405
2018-08-27T14:55:39.402Z,400
2018-08-27T14:56:49.379Z,415
2018-08-27T14:57:59.357Z,465
2018-08-27T14:59:09.368Z,495
2018-08-27T15:00:19.105Z,520
2018-08-27T15:01:28.829Z,570
2018-08-27T15:02:39.006Z,675
2018-08-27T15:03:48.809Z,1060
2018-08-27T15:04:58.795Z,1175
2018-08-27T15:06:08.524Z,1090
2018-08-27T15:07:18.506Z,1075
2018-08-27T15:08:28.230Z,1025
2018-08-27T15:09:38.495Z,995
2018-08-27T15:10:48.640Z,1245
2018-08-27T15:11:58.948Z,800
2018-08-27T15:13:08.933Z,660
2018-08-27T15:14:18.921Z,575
2018-08-27T15:15:28.910Z,525
2018-08-27T15:16:39.095Z,510
2018-08-27T15:17:49.097Z,570
2018-08-27T15:18:59.087Z,625
2018-08-27T15:20:09.059Z,1115
2018-08-27T15:21:19.045Z,725
2018-08-27T15:22:29.023Z,695
2018-08-27T15:23:39.600Z,560
2018-08-27T15:24:49.572Z,445
2018-08-27T15:25:59.561Z,405
2018-08-27T15:27:09.546Z,405
2018-08-27T15:28:19.526Z,420
2018-08-27T15:29:29.537Z,425
2018-08-27T15:30:39.537Z,435
2018-08-27T15:31:49.526Z,465
2018-08-27T15:32:59.806Z,575
2018-08-27T15:34:09.453Z,490
2018-08-27T15:35:19.443Z,480
2018-08-27T15:36:29.158Z,460
2018-08-27T15:37:38.882Z,445
2018-08-27T15:38:49.885Z,415
2018-08-27T15:39:59.942Z,400
2018-08-27T15:41:09.912Z,380
2018-08-27T15:42:19.633Z,365
2018-08-27T15:43:29.965Z,345
2018-08-27T15:44:40.553Z,305
2018-08-27T15:45:50.303Z,290
2018-08-27T15:47:00.029Z,285
2018-08-27T15:48:10.008Z,275
2018-08-27T15:49:19.990Z,265
2018-08-27T15:50:30.455Z,275
2018-08-27T15:51:40.255Z,300
2018-08-27T15:52:49.719Z,345
2018-08-27T15:53:59.699Z,365
2018-08-27T15:55:09.428Z,365
2018-08-27T15:56:19.524Z,365
2018-08-27T15:57:30.068Z,360
2018-08-27T15:58:39.803Z,370
2018-08-27T15:59:49.801Z,415
2018-08-27T16:00:59.538Z,375
2018-08-27T16:02:09.521Z,370
2018-08-27T16:03:20.119Z,375
2018-08-27T16:04:29.925Z,375
2018-08-27T16:05:40.198Z,370
2018-08-27T16:06:49.888Z,370
2018-08-27T16:07:59.624Z,365
2018-08-27T16:09:09.445Z,360
2018-08-27T16:10:19.465Z,360
2018-08-27T16:11:29.500Z,350
2018-08-27T16:12:39.497Z,345
2018-08-27T16:13:49.477Z,345
2018-08-27T16:14:59.448Z,345
2018-08-27T16:16:09.425Z,345
2018-08-27T16:17:19.415Z,335
2018-08-27T16:18:29.264Z,335
2018-08-27T16:19:40.240Z,330
2018-08-27T16:20:50.577Z,315